<?xml version="1.0" encoding="UTF-8" standalone="no" ?>
<gpx xmlns="http://www.topografix.com/GPX/1/1" xmlns:xsi="http://www.w3.org/2001/XMLSchema-instance" xsi:schemaLocation="http://www.topografix.com/GPX/1/1 http://www.topografix.com/GPX/1/1/gpx.xsd" version="1.1" creator="VisuGPX - https://www.visugpx.com">
  <metadata>
    <name>Course à pied dans l'après-midi</name>
  </metadata>
  <trk>
    <name><![CDATA[Course à pied dans l'après-midi_1]]></name>
    <trkseg>
      <trkpt lat="48.7114" lon="7.1629">
        <ele>317.2</ele>
        <time>2023-11-06T15:58:53Z</time>
      </trkpt>
      <trkpt lat="48.71148" lon="7.16278">
        <ele>316.7</ele>
        <time>2023-11-06T15:58:56Z</time>
      </trkpt>
      <trkpt lat="48.71167" lon="7.16266">
        <ele>315.7</ele>
        <time>2023-11-06T15:59:03Z</time>
      </trkpt>
      <trkpt lat="48.71185" lon="7.16257">
        <ele>314.9</ele>
        <time>2023-11-06T15:59:08Z</time>
      </trkpt>
      <trkpt lat="48.71205" lon="7.16261">
        <ele>314</ele>
        <time>2023-11-06T15:59:14Z</time>
      </trkpt>
      <trkpt lat="48.71222" lon="7.16277">
        <ele>313.3</ele>
        <time>2023-11-06T15:59:20Z</time>
      </trkpt>
      <trkpt lat="48.71239" lon="7.16293">
        <ele>312.9</ele>
        <time>2023-11-06T15:59:26Z</time>
      </trkpt>
      <trkpt lat="48.71256" lon="7.16308">
        <ele>312.5</ele>
        <time>2023-11-06T15:59:32Z</time>
      </trkpt>
      <trkpt lat="48.71274" lon="7.16323">
        <ele>312.2</ele>
        <time>2023-11-06T15:59:38Z</time>
      </trkpt>
      <trkpt lat="48.7129" lon="7.16337">
        <ele>312</ele>
        <time>2023-11-06T15:59:44Z</time>
      </trkpt>
      <trkpt lat="48.71307" lon="7.1635">
        <ele>311.8</ele>
        <time>2023-11-06T15:59:50Z</time>
      </trkpt>
      <trkpt lat="48.71323" lon="7.16364">
        <ele>311.5</ele>
        <time>2023-11-06T15:59:56Z</time>
      </trkpt>
      <trkpt lat="48.71343" lon="7.16374">
        <ele>311.3</ele>
        <time>2023-11-06T16:00:03Z</time>
      </trkpt>
      <trkpt lat="48.71362" lon="7.16383">
        <ele>310.9</ele>
        <time>2023-11-06T16:00:10Z</time>
      </trkpt>
      <trkpt lat="48.71382" lon="7.16389">
        <ele>310.2</ele>
        <time>2023-11-06T16:00:16Z</time>
      </trkpt>
      <trkpt lat="48.71401" lon="7.16396">
        <ele>309.4</ele>
        <time>2023-11-06T16:00:22Z</time>
      </trkpt>
      <trkpt lat="48.71419" lon="7.16403">
        <ele>308.5</ele>
        <time>2023-11-06T16:00:28Z</time>
      </trkpt>
      <trkpt lat="48.71438" lon="7.16407">
        <ele>307.5</ele>
        <time>2023-11-06T16:00:34Z</time>
      </trkpt>
      <trkpt lat="48.71457" lon="7.16409">
        <ele>306.5</ele>
        <time>2023-11-06T16:00:40Z</time>
      </trkpt>
      <trkpt lat="48.71477" lon="7.16406">
        <ele>305.5</ele>
        <time>2023-11-06T16:00:46Z</time>
      </trkpt>
      <trkpt lat="48.71495" lon="7.16399">
        <ele>304.7</ele>
        <time>2023-11-06T16:00:52Z</time>
      </trkpt>
      <trkpt lat="48.71513" lon="7.16387">
        <ele>303.9</ele>
        <time>2023-11-06T16:00:58Z</time>
      </trkpt>
      <trkpt lat="48.71532" lon="7.16378">
        <ele>303.2</ele>
        <time>2023-11-06T16:01:04Z</time>
      </trkpt>
      <trkpt lat="48.71552" lon="7.16371">
        <ele>302.5</ele>
        <time>2023-11-06T16:01:11Z</time>
      </trkpt>
      <trkpt lat="48.71571" lon="7.16368">
        <ele>302.3</ele>
        <time>2023-11-06T16:01:17Z</time>
      </trkpt>
      <trkpt lat="48.71591" lon="7.16368">
        <ele>301.8</ele>
        <time>2023-11-06T16:01:23Z</time>
      </trkpt>
      <trkpt lat="48.7161" lon="7.16373">
        <ele>301.3</ele>
        <time>2023-11-06T16:01:29Z</time>
      </trkpt>
      <trkpt lat="48.71628" lon="7.16378">
        <ele>300.8</ele>
        <time>2023-11-06T16:01:35Z</time>
      </trkpt>
      <trkpt lat="48.71647" lon="7.16383">
        <ele>300.3</ele>
        <time>2023-11-06T16:01:41Z</time>
      </trkpt>
      <trkpt lat="48.71665" lon="7.1639">
        <ele>299.8</ele>
        <time>2023-11-06T16:01:47Z</time>
      </trkpt>
      <trkpt lat="48.71684" lon="7.16397">
        <ele>299.4</ele>
        <time>2023-11-06T16:01:53Z</time>
      </trkpt>
      <trkpt lat="48.71703" lon="7.16404">
        <ele>299</ele>
        <time>2023-11-06T16:01:59Z</time>
      </trkpt>
      <trkpt lat="48.71722" lon="7.1641">
        <ele>298.6</ele>
        <time>2023-11-06T16:02:05Z</time>
      </trkpt>
      <trkpt lat="48.71741" lon="7.16413">
        <ele>298.3</ele>
        <time>2023-11-06T16:02:11Z</time>
      </trkpt>
      <trkpt lat="48.7176" lon="7.16414">
        <ele>298.1</ele>
        <time>2023-11-06T16:02:17Z</time>
      </trkpt>
      <trkpt lat="48.7178" lon="7.16422">
        <ele>298.1</ele>
        <time>2023-11-06T16:02:23Z</time>
      </trkpt>
      <trkpt lat="48.71798" lon="7.16434">
        <ele>298</ele>
        <time>2023-11-06T16:02:29Z</time>
      </trkpt>
      <trkpt lat="48.71815" lon="7.16449">
        <ele>297.8</ele>
        <time>2023-11-06T16:02:35Z</time>
      </trkpt>
      <trkpt lat="48.71832" lon="7.1646">
        <ele>297.4</ele>
        <time>2023-11-06T16:02:41Z</time>
      </trkpt>
      <trkpt lat="48.71851" lon="7.16473">
        <ele>297</ele>
        <time>2023-11-06T16:02:47Z</time>
      </trkpt>
      <trkpt lat="48.71869" lon="7.16488">
        <ele>296.5</ele>
        <time>2023-11-06T16:02:53Z</time>
      </trkpt>
      <trkpt lat="48.71885" lon="7.16503">
        <ele>296.2</ele>
        <time>2023-11-06T16:02:59Z</time>
      </trkpt>
      <trkpt lat="48.71902" lon="7.16518">
        <ele>295.8</ele>
        <time>2023-11-06T16:03:05Z</time>
      </trkpt>
      <trkpt lat="48.71919" lon="7.16533">
        <ele>295.4</ele>
        <time>2023-11-06T16:03:11Z</time>
      </trkpt>
      <trkpt lat="48.71936" lon="7.16549">
        <ele>295.1</ele>
        <time>2023-11-06T16:03:17Z</time>
      </trkpt>
      <trkpt lat="48.71953" lon="7.16566">
        <ele>294.6</ele>
        <time>2023-11-06T16:03:23Z</time>
      </trkpt>
      <trkpt lat="48.71967" lon="7.16583">
        <ele>294.1</ele>
        <time>2023-11-06T16:03:29Z</time>
      </trkpt>
      <trkpt lat="48.71982" lon="7.16604">
        <ele>293.5</ele>
        <time>2023-11-06T16:03:36Z</time>
      </trkpt>
      <trkpt lat="48.71998" lon="7.16622">
        <ele>293</ele>
        <time>2023-11-06T16:03:42Z</time>
      </trkpt>
      <trkpt lat="48.72011" lon="7.16643">
        <ele>292.6</ele>
        <time>2023-11-06T16:03:48Z</time>
      </trkpt>
      <trkpt lat="48.72026" lon="7.16663">
        <ele>292.3</ele>
        <time>2023-11-06T16:03:54Z</time>
      </trkpt>
      <trkpt lat="48.7204" lon="7.16683">
        <ele>292.1</ele>
        <time>2023-11-06T16:04:00Z</time>
      </trkpt>
      <trkpt lat="48.72053" lon="7.16707">
        <ele>291.9</ele>
        <time>2023-11-06T16:04:06Z</time>
      </trkpt>
      <trkpt lat="48.72064" lon="7.16731">
        <ele>291.8</ele>
        <time>2023-11-06T16:04:12Z</time>
      </trkpt>
      <trkpt lat="48.7208" lon="7.16745">
        <ele>291.9</ele>
        <time>2023-11-06T16:04:19Z</time>
      </trkpt>
      <trkpt lat="48.72097" lon="7.16737">
        <ele>290.8</ele>
        <time>2023-11-06T16:04:26Z</time>
      </trkpt>
      <trkpt lat="48.72113" lon="7.16754">
        <ele>289.8</ele>
        <time>2023-11-06T16:04:32Z</time>
      </trkpt>
      <trkpt lat="48.72133" lon="7.1676">
        <ele>285.8</ele>
        <time>2023-11-06T16:04:38Z</time>
      </trkpt>
      <trkpt lat="48.72149" lon="7.16773">
        <ele>285.4</ele>
        <time>2023-11-06T16:04:43Z</time>
      </trkpt>
      <trkpt lat="48.72168" lon="7.16785">
        <ele>285.2</ele>
        <time>2023-11-06T16:04:49Z</time>
      </trkpt>
      <trkpt lat="48.72187" lon="7.16799">
        <ele>285.2</ele>
        <time>2023-11-06T16:04:55Z</time>
      </trkpt>
      <trkpt lat="48.72201" lon="7.16819">
        <ele>285.3</ele>
        <time>2023-11-06T16:05:01Z</time>
      </trkpt>
      <trkpt lat="48.72209" lon="7.16848">
        <ele>285.4</ele>
        <time>2023-11-06T16:05:07Z</time>
      </trkpt>
      <trkpt lat="48.72212" lon="7.16875">
        <ele>285.6</ele>
        <time>2023-11-06T16:05:13Z</time>
      </trkpt>
      <trkpt lat="48.72216" lon="7.16904">
        <ele>285.7</ele>
        <time>2023-11-06T16:05:19Z</time>
      </trkpt>
      <trkpt lat="48.72222" lon="7.16932">
        <ele>285.8</ele>
        <time>2023-11-06T16:05:25Z</time>
      </trkpt>
      <trkpt lat="48.72228" lon="7.1696">
        <ele>285.7</ele>
        <time>2023-11-06T16:05:31Z</time>
      </trkpt>
      <trkpt lat="48.72234" lon="7.1699">
        <ele>285.5</ele>
        <time>2023-11-06T16:05:38Z</time>
      </trkpt>
      <trkpt lat="48.72239" lon="7.17018">
        <ele>285.3</ele>
        <time>2023-11-06T16:05:44Z</time>
      </trkpt>
      <trkpt lat="48.72247" lon="7.17044">
        <ele>285.1</ele>
        <time>2023-11-06T16:05:50Z</time>
      </trkpt>
      <trkpt lat="48.72254" lon="7.17071">
        <ele>285</ele>
        <time>2023-11-06T16:05:56Z</time>
      </trkpt>
      <trkpt lat="48.7226" lon="7.17097">
        <ele>284.9</ele>
        <time>2023-11-06T16:06:02Z</time>
      </trkpt>
      <trkpt lat="48.72266" lon="7.17124">
        <ele>284.9</ele>
        <time>2023-11-06T16:06:08Z</time>
      </trkpt>
      <trkpt lat="48.72273" lon="7.17151">
        <ele>284.9</ele>
        <time>2023-11-06T16:06:14Z</time>
      </trkpt>
      <trkpt lat="48.72278" lon="7.17178">
        <ele>285</ele>
        <time>2023-11-06T16:06:20Z</time>
      </trkpt>
      <trkpt lat="48.72283" lon="7.17205">
        <ele>285.1</ele>
        <time>2023-11-06T16:06:26Z</time>
      </trkpt>
      <trkpt lat="48.72288" lon="7.17234">
        <ele>285.1</ele>
        <time>2023-11-06T16:06:32Z</time>
      </trkpt>
      <trkpt lat="48.72294" lon="7.1726">
        <ele>285.2</ele>
        <time>2023-11-06T16:06:38Z</time>
      </trkpt>
      <trkpt lat="48.72297" lon="7.1729">
        <ele>285.2</ele>
        <time>2023-11-06T16:06:44Z</time>
      </trkpt>
      <trkpt lat="48.72298" lon="7.17319">
        <ele>285.1</ele>
        <time>2023-11-06T16:06:50Z</time>
      </trkpt>
      <trkpt lat="48.72298" lon="7.17347">
        <ele>284.9</ele>
        <time>2023-11-06T16:06:56Z</time>
      </trkpt>
      <trkpt lat="48.72302" lon="7.17376">
        <ele>284.5</ele>
        <time>2023-11-06T16:07:03Z</time>
      </trkpt>
      <trkpt lat="48.72306" lon="7.17403">
        <ele>284</ele>
        <time>2023-11-06T16:07:10Z</time>
      </trkpt>
      <trkpt lat="48.72308" lon="7.17434">
        <ele>282.9</ele>
        <time>2023-11-06T16:07:17Z</time>
      </trkpt>
      <trkpt lat="48.72311" lon="7.17461">
        <ele>281.7</ele>
        <time>2023-11-06T16:07:23Z</time>
      </trkpt>
      <trkpt lat="48.72313" lon="7.17491">
        <ele>280.2</ele>
        <time>2023-11-06T16:07:29Z</time>
      </trkpt>
      <trkpt lat="48.72316" lon="7.17519">
        <ele>278.7</ele>
        <time>2023-11-06T16:07:35Z</time>
      </trkpt>
      <trkpt lat="48.72318" lon="7.17549">
        <ele>277</ele>
        <time>2023-11-06T16:07:41Z</time>
      </trkpt>
      <trkpt lat="48.7232" lon="7.17578">
        <ele>275.5</ele>
        <time>2023-11-06T16:07:46Z</time>
      </trkpt>
      <trkpt lat="48.72323" lon="7.17607">
        <ele>274.2</ele>
        <time>2023-11-06T16:07:51Z</time>
      </trkpt>
      <trkpt lat="48.72324" lon="7.17637">
        <ele>273.3</ele>
        <time>2023-11-06T16:07:56Z</time>
      </trkpt>
      <trkpt lat="48.72327" lon="7.17667">
        <ele>272.6</ele>
        <time>2023-11-06T16:08:02Z</time>
      </trkpt>
      <trkpt lat="48.72325" lon="7.17697">
        <ele>272.7</ele>
        <time>2023-11-06T16:08:08Z</time>
      </trkpt>
      <trkpt lat="48.72318" lon="7.17723">
        <ele>272.6</ele>
        <time>2023-11-06T16:08:13Z</time>
      </trkpt>
      <trkpt lat="48.72315" lon="7.17752">
        <ele>272.4</ele>
        <time>2023-11-06T16:08:19Z</time>
      </trkpt>
      <trkpt lat="48.72316" lon="7.17779">
        <ele>272.3</ele>
        <time>2023-11-06T16:08:25Z</time>
      </trkpt>
      <trkpt lat="48.7232" lon="7.17806">
        <ele>272.3</ele>
        <time>2023-11-06T16:08:31Z</time>
      </trkpt>
      <trkpt lat="48.72323" lon="7.17834">
        <ele>272.5</ele>
        <time>2023-11-06T16:08:37Z</time>
      </trkpt>
      <trkpt lat="48.72329" lon="7.17861">
        <ele>272.8</ele>
        <time>2023-11-06T16:08:43Z</time>
      </trkpt>
      <trkpt lat="48.72333" lon="7.17888">
        <ele>273.2</ele>
        <time>2023-11-06T16:08:49Z</time>
      </trkpt>
      <trkpt lat="48.72341" lon="7.17916">
        <ele>273.4</ele>
        <time>2023-11-06T16:08:56Z</time>
      </trkpt>
      <trkpt lat="48.72351" lon="7.17939">
        <ele>273.6</ele>
        <time>2023-11-06T16:09:02Z</time>
      </trkpt>
      <trkpt lat="48.72363" lon="7.17964">
        <ele>273.7</ele>
        <time>2023-11-06T16:09:09Z</time>
      </trkpt>
      <trkpt lat="48.72375" lon="7.17985">
        <ele>273.6</ele>
        <time>2023-11-06T16:09:15Z</time>
      </trkpt>
      <trkpt lat="48.72386" lon="7.18008">
        <ele>273.5</ele>
        <time>2023-11-06T16:09:21Z</time>
      </trkpt>
      <trkpt lat="48.72399" lon="7.1803">
        <ele>273.2</ele>
        <time>2023-11-06T16:09:27Z</time>
      </trkpt>
      <trkpt lat="48.7241" lon="7.18053">
        <ele>272.7</ele>
        <time>2023-11-06T16:09:33Z</time>
      </trkpt>
      <trkpt lat="48.72419" lon="7.18078">
        <ele>272</ele>
        <time>2023-11-06T16:09:39Z</time>
      </trkpt>
      <trkpt lat="48.72424" lon="7.18105">
        <ele>271.1</ele>
        <time>2023-11-06T16:09:45Z</time>
      </trkpt>
      <trkpt lat="48.72424" lon="7.18137">
        <ele>269.9</ele>
        <time>2023-11-06T16:09:51Z</time>
      </trkpt>
      <trkpt lat="48.72426" lon="7.18165">
        <ele>268.8</ele>
        <time>2023-11-06T16:09:57Z</time>
      </trkpt>
      <trkpt lat="48.7243" lon="7.18193">
        <ele>267.7</ele>
        <time>2023-11-06T16:10:03Z</time>
      </trkpt>
      <trkpt lat="48.72444" lon="7.18215">
        <ele>266.6</ele>
        <time>2023-11-06T16:10:09Z</time>
      </trkpt>
      <trkpt lat="48.72461" lon="7.18225">
        <ele>266.5</ele>
        <time>2023-11-06T16:10:14Z</time>
      </trkpt>
      <trkpt lat="48.72472" lon="7.18248">
        <ele>266.6</ele>
        <time>2023-11-06T16:10:20Z</time>
      </trkpt>
      <trkpt lat="48.72479" lon="7.18278">
        <ele>266.6</ele>
        <time>2023-11-06T16:10:27Z</time>
      </trkpt>
      <trkpt lat="48.72485" lon="7.18306">
        <ele>266.6</ele>
        <time>2023-11-06T16:10:34Z</time>
      </trkpt>
      <trkpt lat="48.72493" lon="7.18335">
        <ele>266.6</ele>
        <time>2023-11-06T16:10:41Z</time>
      </trkpt>
      <trkpt lat="48.72501" lon="7.18363">
        <ele>266.5</ele>
        <time>2023-11-06T16:10:48Z</time>
      </trkpt>
      <trkpt lat="48.72507" lon="7.18392">
        <ele>266.4</ele>
        <time>2023-11-06T16:10:55Z</time>
      </trkpt>
      <trkpt lat="48.72511" lon="7.1842">
        <ele>266.1</ele>
        <time>2023-11-06T16:11:02Z</time>
      </trkpt>
      <trkpt lat="48.72508" lon="7.18451">
        <ele>265.4</ele>
        <time>2023-11-06T16:11:09Z</time>
      </trkpt>
      <trkpt lat="48.72515" lon="7.18479">
        <ele>264.8</ele>
        <time>2023-11-06T16:11:16Z</time>
      </trkpt>
      <trkpt lat="48.72521" lon="7.18507">
        <ele>264.5</ele>
        <time>2023-11-06T16:11:22Z</time>
      </trkpt>
      <trkpt lat="48.72532" lon="7.18531">
        <ele>264.1</ele>
        <time>2023-11-06T16:11:28Z</time>
      </trkpt>
      <trkpt lat="48.7254" lon="7.18555">
        <ele>263.7</ele>
        <time>2023-11-06T16:11:34Z</time>
      </trkpt>
      <trkpt lat="48.7254" lon="7.18587">
        <ele>263.1</ele>
        <time>2023-11-06T16:11:41Z</time>
      </trkpt>
      <trkpt lat="48.72537" lon="7.18614">
        <ele>262.5</ele>
        <time>2023-11-06T16:11:47Z</time>
      </trkpt>
      <trkpt lat="48.72531" lon="7.1864">
        <ele>262.1</ele>
        <time>2023-11-06T16:11:53Z</time>
      </trkpt>
      <trkpt lat="48.72521" lon="7.18666">
        <ele>261.8</ele>
        <time>2023-11-06T16:11:59Z</time>
      </trkpt>
      <trkpt lat="48.72509" lon="7.18691">
        <ele>261.5</ele>
        <time>2023-11-06T16:12:07Z</time>
      </trkpt>
      <trkpt lat="48.72497" lon="7.18714">
        <ele>260.7</ele>
        <time>2023-11-06T16:12:16Z</time>
      </trkpt>
      <trkpt lat="48.72484" lon="7.18738">
        <ele>259.8</ele>
        <time>2023-11-06T16:12:23Z</time>
      </trkpt>
      <trkpt lat="48.72473" lon="7.18762">
        <ele>259.3</ele>
        <time>2023-11-06T16:12:30Z</time>
      </trkpt>
      <trkpt lat="48.72462" lon="7.18788">
        <ele>259.2</ele>
        <time>2023-11-06T16:12:36Z</time>
      </trkpt>
      <trkpt lat="48.72454" lon="7.18814">
        <ele>259.1</ele>
        <time>2023-11-06T16:12:42Z</time>
      </trkpt>
      <trkpt lat="48.72446" lon="7.18842">
        <ele>259.1</ele>
        <time>2023-11-06T16:12:49Z</time>
      </trkpt>
      <trkpt lat="48.72441" lon="7.18871">
        <ele>259.1</ele>
        <time>2023-11-06T16:12:57Z</time>
      </trkpt>
      <trkpt lat="48.72434" lon="7.18899">
        <ele>259.2</ele>
        <time>2023-11-06T16:13:04Z</time>
      </trkpt>
      <trkpt lat="48.72427" lon="7.18924">
        <ele>259.2</ele>
        <time>2023-11-06T16:13:10Z</time>
      </trkpt>
      <trkpt lat="48.72421" lon="7.18953">
        <ele>259.2</ele>
        <time>2023-11-06T16:13:17Z</time>
      </trkpt>
      <trkpt lat="48.72414" lon="7.1898">
        <ele>259</ele>
        <time>2023-11-06T16:13:24Z</time>
      </trkpt>
      <trkpt lat="48.72409" lon="7.19008">
        <ele>258.5</ele>
        <time>2023-11-06T16:13:32Z</time>
      </trkpt>
      <trkpt lat="48.72407" lon="7.1904">
        <ele>257.5</ele>
        <time>2023-11-06T16:13:40Z</time>
      </trkpt>
      <trkpt lat="48.724" lon="7.19067">
        <ele>256.9</ele>
        <time>2023-11-06T16:13:46Z</time>
      </trkpt>
      <trkpt lat="48.72395" lon="7.19094">
        <ele>256.6</ele>
        <time>2023-11-06T16:13:55Z</time>
      </trkpt>
      <trkpt lat="48.72391" lon="7.19121">
        <ele>256.6</ele>
        <time>2023-11-06T16:14:05Z</time>
      </trkpt>
      <trkpt lat="48.72387" lon="7.19151">
        <ele>256.5</ele>
        <time>2023-11-06T16:14:14Z</time>
      </trkpt>
      <trkpt lat="48.72382" lon="7.1918">
        <ele>256.4</ele>
        <time>2023-11-06T16:14:22Z</time>
      </trkpt>
      <trkpt lat="48.72381" lon="7.1921">
        <ele>256.5</ele>
        <time>2023-11-06T16:14:30Z</time>
      </trkpt>
      <trkpt lat="48.72382" lon="7.1924">
        <ele>256.6</ele>
        <time>2023-11-06T16:14:38Z</time>
      </trkpt>
      <trkpt lat="48.72383" lon="7.19268">
        <ele>256.7</ele>
        <time>2023-11-06T16:14:45Z</time>
      </trkpt>
      <trkpt lat="48.72384" lon="7.19296">
        <ele>256.7</ele>
        <time>2023-11-06T16:14:52Z</time>
      </trkpt>
      <trkpt lat="48.72384" lon="7.19325">
        <ele>256.4</ele>
        <time>2023-11-06T16:14:59Z</time>
      </trkpt>
      <trkpt lat="48.72381" lon="7.19352">
        <ele>255.7</ele>
        <time>2023-11-06T16:15:05Z</time>
      </trkpt>
      <trkpt lat="48.72382" lon="7.19381">
        <ele>254.9</ele>
        <time>2023-11-06T16:15:12Z</time>
      </trkpt>
      <trkpt lat="48.72383" lon="7.1941">
        <ele>254.4</ele>
        <time>2023-11-06T16:15:21Z</time>
      </trkpt>
      <trkpt lat="48.72388" lon="7.19437">
        <ele>254.3</ele>
        <time>2023-11-06T16:15:31Z</time>
      </trkpt>
      <trkpt lat="48.72393" lon="7.19463">
        <ele>254.3</ele>
        <time>2023-11-06T16:15:40Z</time>
      </trkpt>
      <trkpt lat="48.72397" lon="7.19492">
        <ele>254.3</ele>
        <time>2023-11-06T16:15:48Z</time>
      </trkpt>
      <trkpt lat="48.72403" lon="7.19521">
        <ele>254.3</ele>
        <time>2023-11-06T16:15:56Z</time>
      </trkpt>
      <trkpt lat="48.72411" lon="7.19549">
        <ele>254.1</ele>
        <time>2023-11-06T16:16:02Z</time>
      </trkpt>
      <trkpt lat="48.72419" lon="7.19576">
        <ele>253.8</ele>
        <time>2023-11-06T16:16:07Z</time>
      </trkpt>
      <trkpt lat="48.72424" lon="7.19605">
        <ele>253.7</ele>
        <time>2023-11-06T16:16:12Z</time>
      </trkpt>
      <trkpt lat="48.72431" lon="7.1963">
        <ele>253.3</ele>
        <time>2023-11-06T16:16:17Z</time>
      </trkpt>
      <trkpt lat="48.72439" lon="7.19654">
        <ele>252.6</ele>
        <time>2023-11-06T16:16:24Z</time>
      </trkpt>
      <trkpt lat="48.72445" lon="7.1968">
        <ele>251.8</ele>
        <time>2023-11-06T16:16:30Z</time>
      </trkpt>
      <trkpt lat="48.72447" lon="7.19682">
        <ele>251.7</ele>
        <time>2023-11-06T16:16:34Z</time>
      </trkpt>
      <trkpt lat="48.72439" lon="7.19658">
        <ele>252.5</ele>
        <time>2023-11-06T16:16:46Z</time>
      </trkpt>
      <trkpt lat="48.72428" lon="7.19632">
        <ele>253.4</ele>
        <time>2023-11-06T16:16:58Z</time>
      </trkpt>
      <trkpt lat="48.72419" lon="7.19604">
        <ele>253.7</ele>
        <time>2023-11-06T16:17:02Z</time>
      </trkpt>
      <trkpt lat="48.72411" lon="7.19579">
        <ele>253.8</ele>
        <time>2023-11-06T16:17:06Z</time>
      </trkpt>
      <trkpt lat="48.72403" lon="7.19553">
        <ele>254.1</ele>
        <time>2023-11-06T16:17:13Z</time>
      </trkpt>
      <trkpt lat="48.72397" lon="7.19525">
        <ele>254.3</ele>
        <time>2023-11-06T16:17:23Z</time>
      </trkpt>
      <trkpt lat="48.7239" lon="7.19496">
        <ele>254.3</ele>
        <time>2023-11-06T16:17:31Z</time>
      </trkpt>
      <trkpt lat="48.72387" lon="7.19464">
        <ele>254.3</ele>
        <time>2023-11-06T16:17:36Z</time>
      </trkpt>
      <trkpt lat="48.72383" lon="7.19432">
        <ele>254.4</ele>
        <time>2023-11-06T16:17:40Z</time>
      </trkpt>
      <trkpt lat="48.7238" lon="7.19402">
        <ele>254.5</ele>
        <time>2023-11-06T16:17:45Z</time>
      </trkpt>
      <trkpt lat="48.72381" lon="7.19372">
        <ele>255.2</ele>
        <time>2023-11-06T16:17:53Z</time>
      </trkpt>
      <trkpt lat="48.72383" lon="7.19344">
        <ele>256</ele>
        <time>2023-11-06T16:18:06Z</time>
      </trkpt>
      <trkpt lat="48.72385" lon="7.19313">
        <ele>256.6</ele>
        <time>2023-11-06T16:18:13Z</time>
      </trkpt>
      <trkpt lat="48.72387" lon="7.19282">
        <ele>256.7</ele>
        <time>2023-11-06T16:18:17Z</time>
      </trkpt>
      <trkpt lat="48.72387" lon="7.19252">
        <ele>256.7</ele>
        <time>2023-11-06T16:18:23Z</time>
      </trkpt>
      <trkpt lat="48.72387" lon="7.19221">
        <ele>256.5</ele>
        <time>2023-11-06T16:18:32Z</time>
      </trkpt>
      <trkpt lat="48.72387" lon="7.1919">
        <ele>256.4</ele>
        <time>2023-11-06T16:18:38Z</time>
      </trkpt>
      <trkpt lat="48.72388" lon="7.19161">
        <ele>256.5</ele>
        <time>2023-11-06T16:18:43Z</time>
      </trkpt>
      <trkpt lat="48.72391" lon="7.1913">
        <ele>256.6</ele>
        <time>2023-11-06T16:18:48Z</time>
      </trkpt>
      <trkpt lat="48.72394" lon="7.19098">
        <ele>256.6</ele>
        <time>2023-11-06T16:18:53Z</time>
      </trkpt>
      <trkpt lat="48.72398" lon="7.19069">
        <ele>256.8</ele>
        <time>2023-11-06T16:19:01Z</time>
      </trkpt>
      <trkpt lat="48.72403" lon="7.19042">
        <ele>257.3</ele>
        <time>2023-11-06T16:19:09Z</time>
      </trkpt>
      <trkpt lat="48.72413" lon="7.19019">
        <ele>258.2</ele>
        <time>2023-11-06T16:19:22Z</time>
      </trkpt>
      <trkpt lat="48.72417" lon="7.1899">
        <ele>258.9</ele>
        <time>2023-11-06T16:19:30Z</time>
      </trkpt>
      <trkpt lat="48.72422" lon="7.1896">
        <ele>259.2</ele>
        <time>2023-11-06T16:19:34Z</time>
      </trkpt>
      <trkpt lat="48.72429" lon="7.18931">
        <ele>259.2</ele>
        <time>2023-11-06T16:19:40Z</time>
      </trkpt>
      <trkpt lat="48.72432" lon="7.18904">
        <ele>259.2</ele>
        <time>2023-11-06T16:19:48Z</time>
      </trkpt>
      <trkpt lat="48.72435" lon="7.18875">
        <ele>259.1</ele>
        <time>2023-11-06T16:19:55Z</time>
      </trkpt>
      <trkpt lat="48.72436" lon="7.18867">
        <ele>259.1</ele>
        <time>2023-11-06T16:19:56Z</time>
      </trkpt>
      <trkpt lat="48.7244" lon="7.18839">
        <ele>259.1</ele>
        <time>2023-11-06T16:20:03Z</time>
      </trkpt>
      <trkpt lat="48.72446" lon="7.1881">
        <ele>259.1</ele>
        <time>2023-11-06T16:20:08Z</time>
      </trkpt>
      <trkpt lat="48.72455" lon="7.1878">
        <ele>259.2</ele>
        <time>2023-11-06T16:20:12Z</time>
      </trkpt>
      <trkpt lat="48.72465" lon="7.18754">
        <ele>259.3</ele>
        <time>2023-11-06T16:20:17Z</time>
      </trkpt>
      <trkpt lat="48.72477" lon="7.1873">
        <ele>259.8</ele>
        <time>2023-11-06T16:20:27Z</time>
      </trkpt>
      <trkpt lat="48.7249" lon="7.18708">
        <ele>260.7</ele>
        <time>2023-11-06T16:20:41Z</time>
      </trkpt>
      <trkpt lat="48.72504" lon="7.18684">
        <ele>261.5</ele>
        <time>2023-11-06T16:20:49Z</time>
      </trkpt>
      <trkpt lat="48.72519" lon="7.18664">
        <ele>261.8</ele>
        <time>2023-11-06T16:20:53Z</time>
      </trkpt>
      <trkpt lat="48.72523" lon="7.18654">
        <ele>261.9</ele>
        <time>2023-11-06T16:21:00Z</time>
      </trkpt>
      <trkpt lat="48.7251" lon="7.18673">
        <ele>261.6</ele>
        <time>2023-11-06T16:21:08Z</time>
      </trkpt>
      <trkpt lat="48.72499" lon="7.18697">
        <ele>261</ele>
        <time>2023-11-06T16:21:19Z</time>
      </trkpt>
      <trkpt lat="48.7249" lon="7.18724">
        <ele>260.1</ele>
        <time>2023-11-06T16:21:28Z</time>
      </trkpt>
      <trkpt lat="48.7248" lon="7.18752">
        <ele>259.4</ele>
        <time>2023-11-06T16:21:36Z</time>
      </trkpt>
      <trkpt lat="48.72471" lon="7.1878">
        <ele>259.2</ele>
        <time>2023-11-06T16:21:41Z</time>
      </trkpt>
      <trkpt lat="48.72461" lon="7.1881">
        <ele>259.1</ele>
        <time>2023-11-06T16:21:45Z</time>
      </trkpt>
      <trkpt lat="48.72454" lon="7.18836">
        <ele>259.1</ele>
        <time>2023-11-06T16:21:49Z</time>
      </trkpt>
      <trkpt lat="48.72447" lon="7.18868">
        <ele>259.1</ele>
        <time>2023-11-06T16:21:54Z</time>
      </trkpt>
      <trkpt lat="48.72441" lon="7.18893">
        <ele>259.2</ele>
        <time>2023-11-06T16:21:58Z</time>
      </trkpt>
      <trkpt lat="48.72433" lon="7.18925">
        <ele>259.2</ele>
        <time>2023-11-06T16:22:02Z</time>
      </trkpt>
      <trkpt lat="48.72425" lon="7.18953">
        <ele>259.2</ele>
        <time>2023-11-06T16:22:07Z</time>
      </trkpt>
      <trkpt lat="48.7242" lon="7.1898">
        <ele>259</ele>
        <time>2023-11-06T16:22:14Z</time>
      </trkpt>
      <trkpt lat="48.72412" lon="7.19006">
        <ele>258.5</ele>
        <time>2023-11-06T16:22:22Z</time>
      </trkpt>
      <trkpt lat="48.72406" lon="7.19035">
        <ele>257.6</ele>
        <time>2023-11-06T16:22:30Z</time>
      </trkpt>
      <trkpt lat="48.72401" lon="7.19061">
        <ele>256.9</ele>
        <time>2023-11-06T16:22:36Z</time>
      </trkpt>
      <trkpt lat="48.72398" lon="7.1909">
        <ele>256.7</ele>
        <time>2023-11-06T16:22:44Z</time>
      </trkpt>
      <trkpt lat="48.72393" lon="7.19119">
        <ele>256.6</ele>
        <time>2023-11-06T16:22:51Z</time>
      </trkpt>
      <trkpt lat="48.7239" lon="7.1915">
        <ele>256.5</ele>
        <time>2023-11-06T16:22:58Z</time>
      </trkpt>
      <trkpt lat="48.72387" lon="7.19181">
        <ele>256.4</ele>
        <time>2023-11-06T16:23:04Z</time>
      </trkpt>
      <trkpt lat="48.72385" lon="7.19213">
        <ele>256.5</ele>
        <time>2023-11-06T16:23:08Z</time>
      </trkpt>
      <trkpt lat="48.72384" lon="7.19243">
        <ele>256.7</ele>
        <time>2023-11-06T16:23:12Z</time>
      </trkpt>
      <trkpt lat="48.72382" lon="7.19273">
        <ele>256.7</ele>
        <time>2023-11-06T16:23:18Z</time>
      </trkpt>
      <trkpt lat="48.7238" lon="7.19304">
        <ele>256.7</ele>
        <time>2023-11-06T16:23:26Z</time>
      </trkpt>
      <trkpt lat="48.72379" lon="7.19331">
        <ele>256.3</ele>
        <time>2023-11-06T16:23:33Z</time>
      </trkpt>
      <trkpt lat="48.72377" lon="7.19359">
        <ele>255.5</ele>
        <time>2023-11-06T16:23:40Z</time>
      </trkpt>
      <trkpt lat="48.72379" lon="7.1939">
        <ele>254.7</ele>
        <time>2023-11-06T16:23:47Z</time>
      </trkpt>
      <trkpt lat="48.72383" lon="7.19422">
        <ele>254.4</ele>
        <time>2023-11-06T16:23:53Z</time>
      </trkpt>
      <trkpt lat="48.72387" lon="7.19451">
        <ele>254.3</ele>
        <time>2023-11-06T16:23:58Z</time>
      </trkpt>
      <trkpt lat="48.72394" lon="7.19479">
        <ele>254.3</ele>
        <time>2023-11-06T16:24:03Z</time>
      </trkpt>
      <trkpt lat="48.724" lon="7.19509">
        <ele>254.3</ele>
        <time>2023-11-06T16:24:08Z</time>
      </trkpt>
      <trkpt lat="48.72408" lon="7.19539">
        <ele>254.2</ele>
        <time>2023-11-06T16:24:13Z</time>
      </trkpt>
      <trkpt lat="48.72415" lon="7.19569">
        <ele>253.8</ele>
        <time>2023-11-06T16:24:17Z</time>
      </trkpt>
      <trkpt lat="48.72423" lon="7.19594">
        <ele>253.7</ele>
        <time>2023-11-06T16:24:22Z</time>
      </trkpt>
      <trkpt lat="48.7243" lon="7.19621">
        <ele>253.5</ele>
        <time>2023-11-06T16:24:29Z</time>
      </trkpt>
      <trkpt lat="48.72434" lon="7.19648">
        <ele>252.8</ele>
        <time>2023-11-06T16:24:37Z</time>
      </trkpt>
      <trkpt lat="48.72441" lon="7.19676">
        <ele>252</ele>
        <time>2023-11-06T16:24:45Z</time>
      </trkpt>
      <trkpt lat="48.72443" lon="7.19678">
        <ele>251.9</ele>
        <time>2023-11-06T16:24:48Z</time>
      </trkpt>
      <trkpt lat="48.72434" lon="7.19655">
        <ele>252.6</ele>
        <time>2023-11-06T16:25:01Z</time>
      </trkpt>
      <trkpt lat="48.72426" lon="7.19624">
        <ele>253.5</ele>
        <time>2023-11-06T16:25:12Z</time>
      </trkpt>
      <trkpt lat="48.72417" lon="7.19594">
        <ele>253.7</ele>
        <time>2023-11-06T16:25:16Z</time>
      </trkpt>
      <trkpt lat="48.72408" lon="7.19568">
        <ele>253.9</ele>
        <time>2023-11-06T16:25:21Z</time>
      </trkpt>
      <trkpt lat="48.72399" lon="7.19543">
        <ele>254.2</ele>
        <time>2023-11-06T16:25:30Z</time>
      </trkpt>
      <trkpt lat="48.72392" lon="7.19515">
        <ele>254.3</ele>
        <time>2023-11-06T16:25:39Z</time>
      </trkpt>
      <trkpt lat="48.72389" lon="7.19486">
        <ele>254.3</ele>
        <time>2023-11-06T16:25:47Z</time>
      </trkpt>
      <trkpt lat="48.72385" lon="7.19453">
        <ele>254.3</ele>
        <time>2023-11-06T16:25:54Z</time>
      </trkpt>
      <trkpt lat="48.72384" lon="7.19419">
        <ele>254.4</ele>
        <time>2023-11-06T16:25:58Z</time>
      </trkpt>
      <trkpt lat="48.72382" lon="7.19391">
        <ele>254.7</ele>
        <time>2023-11-06T16:26:02Z</time>
      </trkpt>
      <trkpt lat="48.72383" lon="7.19363">
        <ele>255.4</ele>
        <time>2023-11-06T16:26:12Z</time>
      </trkpt>
      <trkpt lat="48.72385" lon="7.19337">
        <ele>256.2</ele>
        <time>2023-11-06T16:26:23Z</time>
      </trkpt>
      <trkpt lat="48.72386" lon="7.19301">
        <ele>256.7</ele>
        <time>2023-11-06T16:26:28Z</time>
      </trkpt>
      <trkpt lat="48.72386" lon="7.19271">
        <ele>256.7</ele>
        <time>2023-11-06T16:26:32Z</time>
      </trkpt>
      <trkpt lat="48.72385" lon="7.19243">
        <ele>256.6</ele>
        <time>2023-11-06T16:26:39Z</time>
      </trkpt>
      <trkpt lat="48.72386" lon="7.1921">
        <ele>256.5</ele>
        <time>2023-11-06T16:26:45Z</time>
      </trkpt>
      <trkpt lat="48.72387" lon="7.19178">
        <ele>256.4</ele>
        <time>2023-11-06T16:26:50Z</time>
      </trkpt>
      <trkpt lat="48.72389" lon="7.19148">
        <ele>256.5</ele>
        <time>2023-11-06T16:26:55Z</time>
      </trkpt>
      <trkpt lat="48.72392" lon="7.19115">
        <ele>256.6</ele>
        <time>2023-11-06T16:27:00Z</time>
      </trkpt>
      <trkpt lat="48.72397" lon="7.19087">
        <ele>256.7</ele>
        <time>2023-11-06T16:27:04Z</time>
      </trkpt>
      <trkpt lat="48.72398" lon="7.19082">
        <ele>256.7</ele>
        <time>2023-11-06T16:27:05Z</time>
      </trkpt>
      <trkpt lat="48.72403" lon="7.19054">
        <ele>257.1</ele>
        <time>2023-11-06T16:27:12Z</time>
      </trkpt>
      <trkpt lat="48.72408" lon="7.19026">
        <ele>257.9</ele>
        <time>2023-11-06T16:27:26Z</time>
      </trkpt>
      <trkpt lat="48.72413" lon="7.18997">
        <ele>258.8</ele>
        <time>2023-11-06T16:27:36Z</time>
      </trkpt>
      <trkpt lat="48.7242" lon="7.18968">
        <ele>259.1</ele>
        <time>2023-11-06T16:27:40Z</time>
      </trkpt>
      <trkpt lat="48.72425" lon="7.18938">
        <ele>259.2</ele>
        <time>2023-11-06T16:27:45Z</time>
      </trkpt>
      <trkpt lat="48.72428" lon="7.1891">
        <ele>259.2</ele>
        <time>2023-11-06T16:27:54Z</time>
      </trkpt>
      <trkpt lat="48.72433" lon="7.18881">
        <ele>259.2</ele>
        <time>2023-11-06T16:28:02Z</time>
      </trkpt>
      <trkpt lat="48.72438" lon="7.18852">
        <ele>259.1</ele>
        <time>2023-11-06T16:28:10Z</time>
      </trkpt>
      <trkpt lat="48.72444" lon="7.1882">
        <ele>259.1</ele>
        <time>2023-11-06T16:28:17Z</time>
      </trkpt>
      <trkpt lat="48.72453" lon="7.1879">
        <ele>259.2</ele>
        <time>2023-11-06T16:28:21Z</time>
      </trkpt>
      <trkpt lat="48.72462" lon="7.18764">
        <ele>259.2</ele>
        <time>2023-11-06T16:28:26Z</time>
      </trkpt>
      <trkpt lat="48.72473" lon="7.18742">
        <ele>259.5</ele>
        <time>2023-11-06T16:28:35Z</time>
      </trkpt>
      <trkpt lat="48.72485" lon="7.18722">
        <ele>260.2</ele>
        <time>2023-11-06T16:28:47Z</time>
      </trkpt>
      <trkpt lat="48.72499" lon="7.18701">
        <ele>261.1</ele>
        <time>2023-11-06T16:28:56Z</time>
      </trkpt>
      <trkpt lat="48.72513" lon="7.18682">
        <ele>261.7</ele>
        <time>2023-11-06T16:29:00Z</time>
      </trkpt>
      <trkpt lat="48.72525" lon="7.18661">
        <ele>261.9</ele>
        <time>2023-11-06T16:29:04Z</time>
      </trkpt>
      <trkpt lat="48.72531" lon="7.18633">
        <ele>262.2</ele>
        <time>2023-11-06T16:29:10Z</time>
      </trkpt>
      <trkpt lat="48.72535" lon="7.18605">
        <ele>262.6</ele>
        <time>2023-11-06T16:29:19Z</time>
      </trkpt>
      <trkpt lat="48.72535" lon="7.18575">
        <ele>263.3</ele>
        <time>2023-11-06T16:29:26Z</time>
      </trkpt>
      <trkpt lat="48.72533" lon="7.18544">
        <ele>263.9</ele>
        <time>2023-11-06T16:29:32Z</time>
      </trkpt>
      <trkpt lat="48.72524" lon="7.18518">
        <ele>264.4</ele>
        <time>2023-11-06T16:29:37Z</time>
      </trkpt>
      <trkpt lat="48.72521" lon="7.18514">
        <ele>264.4</ele>
        <time>2023-11-06T16:29:38Z</time>
      </trkpt>
      <trkpt lat="48.72511" lon="7.18487">
        <ele>264.8</ele>
        <time>2023-11-06T16:29:43Z</time>
      </trkpt>
      <trkpt lat="48.72503" lon="7.18459">
        <ele>265.3</ele>
        <time>2023-11-06T16:29:48Z</time>
      </trkpt>
      <trkpt lat="48.72501" lon="7.18426">
        <ele>266</ele>
        <time>2023-11-06T16:29:53Z</time>
      </trkpt>
      <trkpt lat="48.72504" lon="7.18396">
        <ele>266.4</ele>
        <time>2023-11-06T16:30:00Z</time>
      </trkpt>
      <trkpt lat="48.72498" lon="7.1837">
        <ele>266.5</ele>
        <time>2023-11-06T16:30:08Z</time>
      </trkpt>
      <trkpt lat="48.72491" lon="7.18343">
        <ele>266.5</ele>
        <time>2023-11-06T16:30:16Z</time>
      </trkpt>
      <trkpt lat="48.72485" lon="7.18316">
        <ele>266.6</ele>
        <time>2023-11-06T16:30:24Z</time>
      </trkpt>
      <trkpt lat="48.72478" lon="7.18288">
        <ele>266.6</ele>
        <time>2023-11-06T16:30:32Z</time>
      </trkpt>
      <trkpt lat="48.72473" lon="7.18259">
        <ele>266.6</ele>
        <time>2023-11-06T16:30:40Z</time>
      </trkpt>
      <trkpt lat="48.72465" lon="7.18232">
        <ele>266.6</ele>
        <time>2023-11-06T16:30:47Z</time>
      </trkpt>
      <trkpt lat="48.7245" lon="7.18227">
        <ele>266.2</ele>
        <time>2023-11-06T16:30:55Z</time>
      </trkpt>
      <trkpt lat="48.72443" lon="7.18235">
        <ele>266</ele>
        <time>2023-11-06T16:30:59Z</time>
      </trkpt>
      <trkpt lat="48.72437" lon="7.18265">
        <ele>264.8</ele>
        <time>2023-11-06T16:31:06Z</time>
      </trkpt>
      <trkpt lat="48.72436" lon="7.18295">
        <ele>263.4</ele>
        <time>2023-11-06T16:31:12Z</time>
      </trkpt>
      <trkpt lat="48.72441" lon="7.18322">
        <ele>262</ele>
        <time>2023-11-06T16:31:19Z</time>
      </trkpt>
      <trkpt lat="48.72445" lon="7.18352">
        <ele>260.6</ele>
        <time>2023-11-06T16:31:26Z</time>
      </trkpt>
      <trkpt lat="48.72448" lon="7.18382">
        <ele>259.4</ele>
        <time>2023-11-06T16:31:32Z</time>
      </trkpt>
      <trkpt lat="48.72451" lon="7.18412">
        <ele>258.4</ele>
        <time>2023-11-06T16:31:38Z</time>
      </trkpt>
      <trkpt lat="48.72455" lon="7.18443">
        <ele>257.8</ele>
        <time>2023-11-06T16:31:45Z</time>
      </trkpt>
      <trkpt lat="48.7246" lon="7.18471">
        <ele>257.6</ele>
        <time>2023-11-06T16:31:53Z</time>
      </trkpt>
      <trkpt lat="48.72459" lon="7.18501">
        <ele>257.7</ele>
        <time>2023-11-06T16:32:02Z</time>
      </trkpt>
      <trkpt lat="48.72455" lon="7.1853">
        <ele>258</ele>
        <time>2023-11-06T16:32:10Z</time>
      </trkpt>
      <trkpt lat="48.72448" lon="7.18557">
        <ele>258.4</ele>
        <time>2023-11-06T16:32:17Z</time>
      </trkpt>
      <trkpt lat="48.72434" lon="7.18581">
        <ele>258.8</ele>
        <time>2023-11-06T16:32:24Z</time>
      </trkpt>
      <trkpt lat="48.7242" lon="7.186">
        <ele>259.1</ele>
        <time>2023-11-06T16:32:29Z</time>
      </trkpt>
      <trkpt lat="48.7241" lon="7.18623">
        <ele>259.3</ele>
        <time>2023-11-06T16:32:36Z</time>
      </trkpt>
      <trkpt lat="48.72401" lon="7.18648">
        <ele>258.8</ele>
        <time>2023-11-06T16:32:42Z</time>
      </trkpt>
      <trkpt lat="48.72392" lon="7.18673">
        <ele>258.2</ele>
        <time>2023-11-06T16:32:49Z</time>
      </trkpt>
      <trkpt lat="48.72382" lon="7.18698">
        <ele>257.5</ele>
        <time>2023-11-06T16:32:55Z</time>
      </trkpt>
      <trkpt lat="48.72376" lon="7.18724">
        <ele>256.7</ele>
        <time>2023-11-06T16:33:02Z</time>
      </trkpt>
      <trkpt lat="48.72368" lon="7.1875">
        <ele>255.8</ele>
        <time>2023-11-06T16:33:08Z</time>
      </trkpt>
      <trkpt lat="48.72361" lon="7.18777">
        <ele>255</ele>
        <time>2023-11-06T16:33:13Z</time>
      </trkpt>
      <trkpt lat="48.72353" lon="7.18806">
        <ele>254.5</ele>
        <time>2023-11-06T16:33:17Z</time>
      </trkpt>
      <trkpt lat="48.72349" lon="7.18834">
        <ele>254.2</ele>
        <time>2023-11-06T16:33:22Z</time>
      </trkpt>
      <trkpt lat="48.72347" lon="7.18849">
        <ele>254.1</ele>
        <time>2023-11-06T16:33:26Z</time>
      </trkpt>
      <trkpt lat="48.72328" lon="7.18845">
        <ele>257.2</ele>
        <time>2023-11-06T16:33:34Z</time>
      </trkpt>
      <trkpt lat="48.72314" lon="7.18826">
        <ele>259.5</ele>
        <time>2023-11-06T16:33:46Z</time>
      </trkpt>
      <trkpt lat="48.72314" lon="7.18826">
        <ele>259.5</ele>
        <time>2023-11-06T16:33:53Z</time>
      </trkpt>
      <trkpt lat="48.72314" lon="7.18826">
        <ele>259.5</ele>
        <time>2023-11-06T16:34:00Z</time>
      </trkpt>
      <trkpt lat="48.72314" lon="7.18826">
        <ele>259.5</ele>
        <time>2023-11-06T16:34:07Z</time>
      </trkpt>
      <trkpt lat="48.72263" lon="7.18791">
        <ele>278.9</ele>
        <time>2023-11-06T16:34:13Z</time>
      </trkpt>
      <trkpt lat="48.72273" lon="7.1876">
        <ele>282.9</ele>
        <time>2023-11-06T16:34:21Z</time>
      </trkpt>
      <trkpt lat="48.72268" lon="7.18733">
        <ele>285.5</ele>
        <time>2023-11-06T16:34:37Z</time>
      </trkpt>
      <trkpt lat="48.72249" lon="7.18728">
        <ele>287.4</ele>
        <time>2023-11-06T16:34:49Z</time>
      </trkpt>
      <trkpt lat="48.7223" lon="7.18726">
        <ele>288.9</ele>
        <time>2023-11-06T16:34:59Z</time>
      </trkpt>
      <trkpt lat="48.72225" lon="7.18731">
        <ele>289.3</ele>
        <time>2023-11-06T16:35:03Z</time>
      </trkpt>
      <trkpt lat="48.72223" lon="7.1876">
        <ele>290.7</ele>
        <time>2023-11-06T16:35:10Z</time>
      </trkpt>
      <trkpt lat="48.72229" lon="7.1879">
        <ele>292.3</ele>
        <time>2023-11-06T16:35:20Z</time>
      </trkpt>
      <trkpt lat="48.72234" lon="7.1882">
        <ele>293.8</ele>
        <time>2023-11-06T16:35:31Z</time>
      </trkpt>
      <trkpt lat="48.72239" lon="7.18848">
        <ele>295.3</ele>
        <time>2023-11-06T16:35:39Z</time>
      </trkpt>
      <trkpt lat="48.7224" lon="7.18863">
        <ele>296</ele>
        <time>2023-11-06T16:35:44Z</time>
      </trkpt>
      <trkpt lat="48.7223" lon="7.18862">
        <ele>296.6</ele>
        <time>2023-11-06T16:35:48Z</time>
      </trkpt>
      <trkpt lat="48.72221" lon="7.18837">
        <ele>297.8</ele>
        <time>2023-11-06T16:35:56Z</time>
      </trkpt>
      <trkpt lat="48.72212" lon="7.18812">
        <ele>299</ele>
        <time>2023-11-06T16:36:04Z</time>
      </trkpt>
      <trkpt lat="48.72202" lon="7.18787">
        <ele>300.4</ele>
        <time>2023-11-06T16:36:13Z</time>
      </trkpt>
      <trkpt lat="48.72189" lon="7.18764">
        <ele>302</ele>
        <time>2023-11-06T16:36:22Z</time>
      </trkpt>
      <trkpt lat="48.72175" lon="7.18743">
        <ele>303.5</ele>
        <time>2023-11-06T16:36:31Z</time>
      </trkpt>
      <trkpt lat="48.72164" lon="7.1872">
        <ele>304.9</ele>
        <time>2023-11-06T16:36:40Z</time>
      </trkpt>
      <trkpt lat="48.72153" lon="7.18698">
        <ele>306.3</ele>
        <time>2023-11-06T16:36:48Z</time>
      </trkpt>
      <trkpt lat="48.7214" lon="7.18676">
        <ele>308</ele>
        <time>2023-11-06T16:36:56Z</time>
      </trkpt>
      <trkpt lat="48.72128" lon="7.18654">
        <ele>309.5</ele>
        <time>2023-11-06T16:37:04Z</time>
      </trkpt>
      <trkpt lat="48.72116" lon="7.18629">
        <ele>311.2</ele>
        <time>2023-11-06T16:37:12Z</time>
      </trkpt>
      <trkpt lat="48.72106" lon="7.18607">
        <ele>312.6</ele>
        <time>2023-11-06T16:37:20Z</time>
      </trkpt>
      <trkpt lat="48.72095" lon="7.18583">
        <ele>314.1</ele>
        <time>2023-11-06T16:37:29Z</time>
      </trkpt>
      <trkpt lat="48.72082" lon="7.18561">
        <ele>315.7</ele>
        <time>2023-11-06T16:37:38Z</time>
      </trkpt>
      <trkpt lat="48.72064" lon="7.1855">
        <ele>317.5</ele>
        <time>2023-11-06T16:37:47Z</time>
      </trkpt>
      <trkpt lat="48.72047" lon="7.1854">
        <ele>319.2</ele>
        <time>2023-11-06T16:37:56Z</time>
      </trkpt>
      <trkpt lat="48.72027" lon="7.1854">
        <ele>321.1</ele>
        <time>2023-11-06T16:38:05Z</time>
      </trkpt>
      <trkpt lat="48.72007" lon="7.18541">
        <ele>323</ele>
        <time>2023-11-06T16:38:14Z</time>
      </trkpt>
      <trkpt lat="48.71989" lon="7.18528">
        <ele>325</ele>
        <time>2023-11-06T16:38:22Z</time>
      </trkpt>
      <trkpt lat="48.71971" lon="7.1852">
        <ele>326.9</ele>
        <time>2023-11-06T16:38:31Z</time>
      </trkpt>
      <trkpt lat="48.71954" lon="7.18533">
        <ele>328.8</ele>
        <time>2023-11-06T16:38:41Z</time>
      </trkpt>
      <trkpt lat="48.71938" lon="7.18549">
        <ele>330.8</ele>
        <time>2023-11-06T16:38:51Z</time>
      </trkpt>
      <trkpt lat="48.71923" lon="7.18565">
        <ele>332.9</ele>
        <time>2023-11-06T16:39:00Z</time>
      </trkpt>
      <trkpt lat="48.71906" lon="7.18582">
        <ele>335.1</ele>
        <time>2023-11-06T16:39:10Z</time>
      </trkpt>
      <trkpt lat="48.71891" lon="7.18597">
        <ele>337</ele>
        <time>2023-11-06T16:39:19Z</time>
      </trkpt>
      <trkpt lat="48.71874" lon="7.18616">
        <ele>339.2</ele>
        <time>2023-11-06T16:39:28Z</time>
      </trkpt>
      <trkpt lat="48.71859" lon="7.18632">
        <ele>341.1</ele>
        <time>2023-11-06T16:39:36Z</time>
      </trkpt>
      <trkpt lat="48.71843" lon="7.18647">
        <ele>343.1</ele>
        <time>2023-11-06T16:39:45Z</time>
      </trkpt>
      <trkpt lat="48.71827" lon="7.18661">
        <ele>345.1</ele>
        <time>2023-11-06T16:39:54Z</time>
      </trkpt>
      <trkpt lat="48.7181" lon="7.18678">
        <ele>346.5</ele>
        <time>2023-11-06T16:40:03Z</time>
      </trkpt>
      <trkpt lat="48.71795" lon="7.18693">
        <ele>347.9</ele>
        <time>2023-11-06T16:40:11Z</time>
      </trkpt>
      <trkpt lat="48.71779" lon="7.18708">
        <ele>349.1</ele>
        <time>2023-11-06T16:40:20Z</time>
      </trkpt>
      <trkpt lat="48.71762" lon="7.18722">
        <ele>350.5</ele>
        <time>2023-11-06T16:40:29Z</time>
      </trkpt>
      <trkpt lat="48.71747" lon="7.18739">
        <ele>352.2</ele>
        <time>2023-11-06T16:40:37Z</time>
      </trkpt>
      <trkpt lat="48.71729" lon="7.18734">
        <ele>353.3</ele>
        <time>2023-11-06T16:40:45Z</time>
      </trkpt>
      <trkpt lat="48.71716" lon="7.18713">
        <ele>353.6</ele>
        <time>2023-11-06T16:40:51Z</time>
      </trkpt>
      <trkpt lat="48.71703" lon="7.18689">
        <ele>354.1</ele>
        <time>2023-11-06T16:40:58Z</time>
      </trkpt>
      <trkpt lat="48.71692" lon="7.18665">
        <ele>354.5</ele>
        <time>2023-11-06T16:41:05Z</time>
      </trkpt>
      <trkpt lat="48.71682" lon="7.18641">
        <ele>354.9</ele>
        <time>2023-11-06T16:41:12Z</time>
      </trkpt>
      <trkpt lat="48.71673" lon="7.18616">
        <ele>355.3</ele>
        <time>2023-11-06T16:41:19Z</time>
      </trkpt>
      <trkpt lat="48.7166" lon="7.18595">
        <ele>355.7</ele>
        <time>2023-11-06T16:41:26Z</time>
      </trkpt>
      <trkpt lat="48.71649" lon="7.18572">
        <ele>356</ele>
        <time>2023-11-06T16:41:33Z</time>
      </trkpt>
      <trkpt lat="48.71639" lon="7.18547">
        <ele>356.2</ele>
        <time>2023-11-06T16:41:40Z</time>
      </trkpt>
      <trkpt lat="48.71628" lon="7.18524">
        <ele>356.5</ele>
        <time>2023-11-06T16:41:47Z</time>
      </trkpt>
      <trkpt lat="48.71616" lon="7.18499">
        <ele>356.7</ele>
        <time>2023-11-06T16:41:54Z</time>
      </trkpt>
      <trkpt lat="48.71605" lon="7.18475">
        <ele>356.9</ele>
        <time>2023-11-06T16:42:01Z</time>
      </trkpt>
      <trkpt lat="48.71595" lon="7.1845">
        <ele>357.1</ele>
        <time>2023-11-06T16:42:08Z</time>
      </trkpt>
      <trkpt lat="48.71581" lon="7.18426">
        <ele>357.3</ele>
        <time>2023-11-06T16:42:15Z</time>
      </trkpt>
      <trkpt lat="48.71569" lon="7.18402">
        <ele>357.6</ele>
        <time>2023-11-06T16:42:22Z</time>
      </trkpt>
      <trkpt lat="48.71557" lon="7.18379">
        <ele>358</ele>
        <time>2023-11-06T16:42:29Z</time>
      </trkpt>
      <trkpt lat="48.71546" lon="7.18355">
        <ele>358.4</ele>
        <time>2023-11-06T16:42:36Z</time>
      </trkpt>
      <trkpt lat="48.71534" lon="7.18334">
        <ele>358.9</ele>
        <time>2023-11-06T16:42:43Z</time>
      </trkpt>
      <trkpt lat="48.71516" lon="7.18322">
        <ele>359.4</ele>
        <time>2023-11-06T16:42:51Z</time>
      </trkpt>
      <trkpt lat="48.71497" lon="7.18325">
        <ele>360</ele>
        <time>2023-11-06T16:42:59Z</time>
      </trkpt>
      <trkpt lat="48.71478" lon="7.18337">
        <ele>360.5</ele>
        <time>2023-11-06T16:43:08Z</time>
      </trkpt>
      <trkpt lat="48.71462" lon="7.18352">
        <ele>360.9</ele>
        <time>2023-11-06T16:43:17Z</time>
      </trkpt>
      <trkpt lat="48.71446" lon="7.18367">
        <ele>361.4</ele>
        <time>2023-11-06T16:43:24Z</time>
      </trkpt>
      <trkpt lat="48.7143" lon="7.18385">
        <ele>361.9</ele>
        <time>2023-11-06T16:43:33Z</time>
      </trkpt>
      <trkpt lat="48.71415" lon="7.18401">
        <ele>362.4</ele>
        <time>2023-11-06T16:43:41Z</time>
      </trkpt>
      <trkpt lat="48.71397" lon="7.18405">
        <ele>362.8</ele>
        <time>2023-11-06T16:43:47Z</time>
      </trkpt>
      <trkpt lat="48.71382" lon="7.18389">
        <ele>362.1</ele>
        <time>2023-11-06T16:43:53Z</time>
      </trkpt>
      <trkpt lat="48.71369" lon="7.18368">
        <ele>361.7</ele>
        <time>2023-11-06T16:44:00Z</time>
      </trkpt>
      <trkpt lat="48.71356" lon="7.18346">
        <ele>361.7</ele>
        <time>2023-11-06T16:44:07Z</time>
      </trkpt>
      <trkpt lat="48.71343" lon="7.18322">
        <ele>361.6</ele>
        <time>2023-11-06T16:44:14Z</time>
      </trkpt>
      <trkpt lat="48.71334" lon="7.18298">
        <ele>361.5</ele>
        <time>2023-11-06T16:44:20Z</time>
      </trkpt>
      <trkpt lat="48.71321" lon="7.18275">
        <ele>361.5</ele>
        <time>2023-11-06T16:44:27Z</time>
      </trkpt>
      <trkpt lat="48.71311" lon="7.18252">
        <ele>361.5</ele>
        <time>2023-11-06T16:44:34Z</time>
      </trkpt>
      <trkpt lat="48.71299" lon="7.18225">
        <ele>361.4</ele>
        <time>2023-11-06T16:44:41Z</time>
      </trkpt>
      <trkpt lat="48.71289" lon="7.18198">
        <ele>361.2</ele>
        <time>2023-11-06T16:44:48Z</time>
      </trkpt>
      <trkpt lat="48.71279" lon="7.18171">
        <ele>360.9</ele>
        <time>2023-11-06T16:44:55Z</time>
      </trkpt>
      <trkpt lat="48.71269" lon="7.18145">
        <ele>360.8</ele>
        <time>2023-11-06T16:45:02Z</time>
      </trkpt>
      <trkpt lat="48.7126" lon="7.18118">
        <ele>360.7</ele>
        <time>2023-11-06T16:45:09Z</time>
      </trkpt>
      <trkpt lat="48.7125" lon="7.18091">
        <ele>360.5</ele>
        <time>2023-11-06T16:45:16Z</time>
      </trkpt>
      <trkpt lat="48.71239" lon="7.18064">
        <ele>360.2</ele>
        <time>2023-11-06T16:45:23Z</time>
      </trkpt>
      <trkpt lat="48.7123" lon="7.18041">
        <ele>360</ele>
        <time>2023-11-06T16:45:29Z</time>
      </trkpt>
      <trkpt lat="48.71221" lon="7.18017">
        <ele>359.8</ele>
        <time>2023-11-06T16:45:35Z</time>
      </trkpt>
      <trkpt lat="48.7121" lon="7.17995">
        <ele>359.7</ele>
        <time>2023-11-06T16:45:41Z</time>
      </trkpt>
      <trkpt lat="48.71199" lon="7.17969">
        <ele>359.4</ele>
        <time>2023-11-06T16:45:48Z</time>
      </trkpt>
      <trkpt lat="48.71187" lon="7.17946">
        <ele>359.1</ele>
        <time>2023-11-06T16:45:55Z</time>
      </trkpt>
      <trkpt lat="48.71175" lon="7.17923">
        <ele>358.9</ele>
        <time>2023-11-06T16:46:02Z</time>
      </trkpt>
      <trkpt lat="48.71162" lon="7.179">
        <ele>358.7</ele>
        <time>2023-11-06T16:46:09Z</time>
      </trkpt>
      <trkpt lat="48.71151" lon="7.17879">
        <ele>358.6</ele>
        <time>2023-11-06T16:46:15Z</time>
      </trkpt>
      <trkpt lat="48.71137" lon="7.17857">
        <ele>358.5</ele>
        <time>2023-11-06T16:46:22Z</time>
      </trkpt>
      <trkpt lat="48.71123" lon="7.17837">
        <ele>358.5</ele>
        <time>2023-11-06T16:46:29Z</time>
      </trkpt>
      <trkpt lat="48.71107" lon="7.17819">
        <ele>358.6</ele>
        <time>2023-11-06T16:46:36Z</time>
      </trkpt>
      <trkpt lat="48.71093" lon="7.17798">
        <ele>358.5</ele>
        <time>2023-11-06T16:46:43Z</time>
      </trkpt>
      <trkpt lat="48.71077" lon="7.17777">
        <ele>358.5</ele>
        <time>2023-11-06T16:46:50Z</time>
      </trkpt>
      <trkpt lat="48.71063" lon="7.17756">
        <ele>358.4</ele>
        <time>2023-11-06T16:46:57Z</time>
      </trkpt>
      <trkpt lat="48.71047" lon="7.17734">
        <ele>358.3</ele>
        <time>2023-11-06T16:47:04Z</time>
      </trkpt>
      <trkpt lat="48.71033" lon="7.17712">
        <ele>358.1</ele>
        <time>2023-11-06T16:47:11Z</time>
      </trkpt>
      <trkpt lat="48.7102" lon="7.17693">
        <ele>357.8</ele>
        <time>2023-11-06T16:47:17Z</time>
      </trkpt>
      <trkpt lat="48.71007" lon="7.17672">
        <ele>357.5</ele>
        <time>2023-11-06T16:47:23Z</time>
      </trkpt>
      <trkpt lat="48.70998" lon="7.17647">
        <ele>357.3</ele>
        <time>2023-11-06T16:47:29Z</time>
      </trkpt>
      <trkpt lat="48.70992" lon="7.17619">
        <ele>356.7</ele>
        <time>2023-11-06T16:47:35Z</time>
      </trkpt>
      <trkpt lat="48.70991" lon="7.17589">
        <ele>356.2</ele>
        <time>2023-11-06T16:47:41Z</time>
      </trkpt>
      <trkpt lat="48.70992" lon="7.17562">
        <ele>355.8</ele>
        <time>2023-11-06T16:47:47Z</time>
      </trkpt>
      <trkpt lat="48.70994" lon="7.17531">
        <ele>355.5</ele>
        <time>2023-11-06T16:47:54Z</time>
      </trkpt>
      <trkpt lat="48.70997" lon="7.175">
        <ele>355.1</ele>
        <time>2023-11-06T16:48:01Z</time>
      </trkpt>
      <trkpt lat="48.70997" lon="7.17473">
        <ele>354.9</ele>
        <time>2023-11-06T16:48:07Z</time>
      </trkpt>
      <trkpt lat="48.70992" lon="7.17443">
        <ele>354.7</ele>
        <time>2023-11-06T16:48:14Z</time>
      </trkpt>
      <trkpt lat="48.70985" lon="7.17415">
        <ele>354.5</ele>
        <time>2023-11-06T16:48:21Z</time>
      </trkpt>
      <trkpt lat="48.70976" lon="7.1739">
        <ele>354.4</ele>
        <time>2023-11-06T16:48:28Z</time>
      </trkpt>
      <trkpt lat="48.70967" lon="7.17363">
        <ele>354.3</ele>
        <time>2023-11-06T16:48:35Z</time>
      </trkpt>
      <trkpt lat="48.70957" lon="7.17335">
        <ele>354</ele>
        <time>2023-11-06T16:48:42Z</time>
      </trkpt>
      <trkpt lat="48.70949" lon="7.1731">
        <ele>353.8</ele>
        <time>2023-11-06T16:48:48Z</time>
      </trkpt>
      <trkpt lat="48.70942" lon="7.17283">
        <ele>353.5</ele>
        <time>2023-11-06T16:48:55Z</time>
      </trkpt>
      <trkpt lat="48.70939" lon="7.17256">
        <ele>353.4</ele>
        <time>2023-11-06T16:49:02Z</time>
      </trkpt>
      <trkpt lat="48.70946" lon="7.1723">
        <ele>353.1</ele>
        <time>2023-11-06T16:49:08Z</time>
      </trkpt>
      <trkpt lat="48.70954" lon="7.17201">
        <ele>352.6</ele>
        <time>2023-11-06T16:49:15Z</time>
      </trkpt>
      <trkpt lat="48.70961" lon="7.17172">
        <ele>352</ele>
        <time>2023-11-06T16:49:22Z</time>
      </trkpt>
      <trkpt lat="48.70971" lon="7.17144">
        <ele>351.5</ele>
        <time>2023-11-06T16:49:29Z</time>
      </trkpt>
      <trkpt lat="48.70978" lon="7.17116">
        <ele>351</ele>
        <time>2023-11-06T16:49:36Z</time>
      </trkpt>
      <trkpt lat="48.70989" lon="7.1709">
        <ele>350.7</ele>
        <time>2023-11-06T16:49:43Z</time>
      </trkpt>
      <trkpt lat="48.70998" lon="7.17064">
        <ele>350.3</ele>
        <time>2023-11-06T16:49:50Z</time>
      </trkpt>
      <trkpt lat="48.71008" lon="7.17037">
        <ele>349.4</ele>
        <time>2023-11-06T16:49:58Z</time>
      </trkpt>
      <trkpt lat="48.7102" lon="7.17017">
        <ele>348.3</ele>
        <time>2023-11-06T16:50:04Z</time>
      </trkpt>
      <trkpt lat="48.71034" lon="7.16995">
        <ele>347.5</ele>
        <time>2023-11-06T16:50:10Z</time>
      </trkpt>
      <trkpt lat="48.71048" lon="7.16977">
        <ele>346.7</ele>
        <time>2023-11-06T16:50:16Z</time>
      </trkpt>
      <trkpt lat="48.71063" lon="7.1696">
        <ele>345.8</ele>
        <time>2023-11-06T16:50:22Z</time>
      </trkpt>
      <trkpt lat="48.7108" lon="7.16943">
        <ele>345.2</ele>
        <time>2023-11-06T16:50:28Z</time>
      </trkpt>
      <trkpt lat="48.71098" lon="7.16929">
        <ele>344.6</ele>
        <time>2023-11-06T16:50:34Z</time>
      </trkpt>
      <trkpt lat="48.71117" lon="7.1693">
        <ele>343.7</ele>
        <time>2023-11-06T16:50:40Z</time>
      </trkpt>
      <trkpt lat="48.71137" lon="7.16929">
        <ele>342.8</ele>
        <time>2023-11-06T16:50:46Z</time>
      </trkpt>
      <trkpt lat="48.71157" lon="7.16922">
        <ele>342.1</ele>
        <time>2023-11-06T16:50:53Z</time>
      </trkpt>
      <trkpt lat="48.71177" lon="7.1692">
        <ele>341.4</ele>
        <time>2023-11-06T16:50:59Z</time>
      </trkpt>
      <trkpt lat="48.71197" lon="7.16921">
        <ele>340.2</ele>
        <time>2023-11-06T16:51:06Z</time>
      </trkpt>
      <trkpt lat="48.71217" lon="7.1692">
        <ele>339.1</ele>
        <time>2023-11-06T16:51:13Z</time>
      </trkpt>
      <trkpt lat="48.71236" lon="7.16911">
        <ele>338.2</ele>
        <time>2023-11-06T16:51:20Z</time>
      </trkpt>
      <trkpt lat="48.71251" lon="7.16895">
        <ele>337.4</ele>
        <time>2023-11-06T16:51:27Z</time>
      </trkpt>
      <trkpt lat="48.71264" lon="7.16871">
        <ele>336.8</ele>
        <time>2023-11-06T16:51:34Z</time>
      </trkpt>
      <trkpt lat="48.71277" lon="7.16847">
        <ele>336.4</ele>
        <time>2023-11-06T16:51:41Z</time>
      </trkpt>
      <trkpt lat="48.71291" lon="7.16825">
        <ele>335.7</ele>
        <time>2023-11-06T16:51:48Z</time>
      </trkpt>
      <trkpt lat="48.71305" lon="7.16802">
        <ele>334.8</ele>
        <time>2023-11-06T16:51:55Z</time>
      </trkpt>
      <trkpt lat="48.71319" lon="7.16779">
        <ele>333.8</ele>
        <time>2023-11-06T16:52:02Z</time>
      </trkpt>
      <trkpt lat="48.71332" lon="7.16755">
        <ele>332.6</ele>
        <time>2023-11-06T16:52:09Z</time>
      </trkpt>
      <trkpt lat="48.71343" lon="7.16733">
        <ele>331.5</ele>
        <time>2023-11-06T16:52:15Z</time>
      </trkpt>
      <trkpt lat="48.71355" lon="7.16707">
        <ele>330.5</ele>
        <time>2023-11-06T16:52:22Z</time>
      </trkpt>
      <trkpt lat="48.71367" lon="7.16685">
        <ele>329.9</ele>
        <time>2023-11-06T16:52:29Z</time>
      </trkpt>
      <trkpt lat="48.7138" lon="7.16661">
        <ele>327.9</ele>
        <time>2023-11-06T16:52:36Z</time>
      </trkpt>
      <trkpt lat="48.7139" lon="7.16634">
        <ele>325.7</ele>
        <time>2023-11-06T16:52:43Z</time>
      </trkpt>
      <trkpt lat="48.714" lon="7.16609">
        <ele>323.8</ele>
        <time>2023-11-06T16:52:50Z</time>
      </trkpt>
      <trkpt lat="48.7141" lon="7.16584">
        <ele>321.6</ele>
        <time>2023-11-06T16:52:57Z</time>
      </trkpt>
      <trkpt lat="48.71421" lon="7.16559">
        <ele>319.6</ele>
        <time>2023-11-06T16:53:04Z</time>
      </trkpt>
      <trkpt lat="48.71433" lon="7.16537">
        <ele>317.7</ele>
        <time>2023-11-06T16:53:11Z</time>
      </trkpt>
      <trkpt lat="48.71444" lon="7.16513">
        <ele>315.2</ele>
        <time>2023-11-06T16:53:17Z</time>
      </trkpt>
      <trkpt lat="48.71456" lon="7.16488">
        <ele>312.4</ele>
        <time>2023-11-06T16:53:24Z</time>
      </trkpt>
      <trkpt lat="48.71467" lon="7.16465">
        <ele>310.3</ele>
        <time>2023-11-06T16:53:30Z</time>
      </trkpt>
      <trkpt lat="48.71477" lon="7.16442">
        <ele>308</ele>
        <time>2023-11-06T16:53:36Z</time>
      </trkpt>
      <trkpt lat="48.71483" lon="7.16418">
        <ele>306.3</ele>
        <time>2023-11-06T16:53:42Z</time>
      </trkpt>
      <trkpt lat="48.7148" lon="7.16413">
        <ele>305.4</ele>
        <time>2023-11-06T16:53:44Z</time>
      </trkpt>
      <trkpt lat="48.7146" lon="7.16412">
        <ele>306.4</ele>
        <time>2023-11-06T16:53:51Z</time>
      </trkpt>
      <trkpt lat="48.7144" lon="7.16411">
        <ele>307.5</ele>
        <time>2023-11-06T16:53:59Z</time>
      </trkpt>
      <trkpt lat="48.71419" lon="7.16408">
        <ele>308.5</ele>
        <time>2023-11-06T16:54:06Z</time>
      </trkpt>
      <trkpt lat="48.71399" lon="7.16405">
        <ele>309.5</ele>
        <time>2023-11-06T16:54:13Z</time>
      </trkpt>
      <trkpt lat="48.71381" lon="7.16398">
        <ele>310.2</ele>
        <time>2023-11-06T16:54:20Z</time>
      </trkpt>
      <trkpt lat="48.71362" lon="7.16391">
        <ele>310.8</ele>
        <time>2023-11-06T16:54:29Z</time>
      </trkpt>
      <trkpt lat="48.71344" lon="7.16385">
        <ele>311.2</ele>
        <time>2023-11-06T16:54:37Z</time>
      </trkpt>
      <trkpt lat="48.71325" lon="7.16377">
        <ele>311.5</ele>
        <time>2023-11-06T16:54:42Z</time>
      </trkpt>
      <trkpt lat="48.71306" lon="7.16363">
        <ele>311.7</ele>
        <time>2023-11-06T16:54:48Z</time>
      </trkpt>
      <trkpt lat="48.7129" lon="7.16349">
        <ele>312</ele>
        <time>2023-11-06T16:54:54Z</time>
      </trkpt>
      <trkpt lat="48.71274" lon="7.16336">
        <ele>312.2</ele>
        <time>2023-11-06T16:55:00Z</time>
      </trkpt>
      <trkpt lat="48.71257" lon="7.16321">
        <ele>312.4</ele>
        <time>2023-11-06T16:55:07Z</time>
      </trkpt>
      <trkpt lat="48.71243" lon="7.16302">
        <ele>312.8</ele>
        <time>2023-11-06T16:55:14Z</time>
      </trkpt>
      <trkpt lat="48.71227" lon="7.16288">
        <ele>313.2</ele>
        <time>2023-11-06T16:55:21Z</time>
      </trkpt>
      <trkpt lat="48.7121" lon="7.16276">
        <ele>313.7</ele>
        <time>2023-11-06T16:55:28Z</time>
      </trkpt>
      <trkpt lat="48.71193" lon="7.16267">
        <ele>314.5</ele>
        <time>2023-11-06T16:55:35Z</time>
      </trkpt>
      <trkpt lat="48.71175" lon="7.16263">
        <ele>315.5</ele>
        <time>2023-11-06T16:55:44Z</time>
      </trkpt>
      <trkpt lat="48.71157" lon="7.16272">
        <ele>316.4</ele>
        <time>2023-11-06T16:55:53Z</time>
      </trkpt>
      <trkpt lat="48.71148" lon="7.16279">
        <ele>316.9</ele>
        <time>2023-11-06T16:55:58Z</time>
      </trkpt>
    </trkseg>
  </trk>
</gpx>